Terminal Aerodrome Forecast
Issued by NWS Denver/Boulder, CO

Home | Current Version | Previous Version | Text Only | Print | Product List | Glossary On
Versions: 1 2 3 4 5 6 7 8 9 10 11 12 13 14 15 16 17 18 19 20 21 22 23 24 25 26 27 28 29 30 31 32 33 34 35 36 37 38 39 40 41 42 43 44 45 46 47 48 49 50
000
FTUS45 KBOU 231740
TAFDEN
TAF
KDEN 231740Z 2318/2424 12006KT P6SM BKN030 BKN040
     FM231900 11010KT P6SM VCTS BKN025CB BKN040
      TEMPO 2319/2323 VRB25G35KT 4SM -TSRA BKN020CB OVC040
     FM232300 16010KT P6SM VCTS SCT035CB BKN060
      TEMPO 2323/2402 -SHRA BKN035
     FM240200 23007KT P6SM SCT060 BKN100
     FM240600 21007KT P6SM SCT060 SCT100
     FM241000 VRB05KT P6SM VCFG SCT006 SCT012
      TEMPO 2410/2414 3SM BR BKN006
     FM241500 21006KT P6SM SCT025 SCT100
     FM241900 14010KT P6SM VCTS BKN025CB BKN045
      TEMPO 2420/2424 4SM -TSRA BKN020CB OVC040=

USA.gov is the U.S. government's official web portal to all federal, state and local government web resources and services.